Time;durP1;ratioP1;P1;durP2;ratioP2;P2;SDS_P1;SDS_P2;PMS_P1;PMS_P2;Temp;Humidity;BMP_temperature;BMP_pressure;BME280_temperature;BME280_humidity;BME280_pressure;Samples;Min_cycle;Max_cycle;Signal;HPM_P1;HPM_P2
2023/02/09 00:01:03;;;;;;;1.70;0.90;;;;;;;4.85;100.00;101771.41;5045301;28;20040;-80
2023/02/09 00:03:29;;;;;;;2.35;1.77;;;;;;;4.87;100.00;101776.59;5011166;28;20481;-80
2023/02/09 00:05:58;;;;;;;2.50;1.42;;;;;;;4.92;100.00;101785.09;5032993;28;20040;-80
2023/02/09 00:08:24;;;;;;;0.98;0.70;;;;;;;4.91;100.00;101791.22;5048544;28;20036;-80
2023/02/09 00:10:49;;;;;;;1.73;1.17;;;;;;;4.90;100.00;101794.78;5048827;28;20648;-80
2023/02/09 00:13:21;;;;;;;5.38;3.25;;;;;;;4.89;100.00;101803.56;5022376;28;20472;-81
2023/02/09 00:15:56;;;;;;;4.57;3.00;;;;;;;4.90;100.00;101800.88;5024864;28;20032;-80
2023/02/09 00:18:24;;;;;;;4.30;2.45;;;;;;;4.89;100.00;101801.78;5010870;28;20056;-80
2023/02/09 00:21:01;;;;;;;5.80;2.15;;;;;;;4.88;100.00;101797.47;5031176;28;20056;-80
2023/02/09 00:23:29;;;;;;;4.88;2.60;;;;;;;4.80;100.00;101803.09;5049581;28;20232;-80
2023/02/09 00:25:58;;;;;;;2.15;1.95;;;;;;;4.77;100.00;101807.59;4994764;28;20037;-80
2023/02/09 00:28:24;;;;;;;5.78;1.60;;;;;;;4.68;100.00;101806.28;5035300;28;20246;-80
2023/02/09 00:30:50;;;;;;;3.88;1.50;;;;;;;4.64;100.00;101802.94;4971514;28;20033;-80
2023/02/09 00:33:16;;;;;;;2.25;0.90;;;;;;;4.61;100.00;101805.72;5025595;28;20032;-80
2023/02/09 00:35:43;;;;;;;2.85;0.82;;;;;;;4.60;100.00;101809.25;5028753;28;20150;-80
2023/02/09 00:38:11;;;;;;;4.05;1.63;;;;;;;4.57;100.00;101815.47;5014380;28;20120;-80
2023/02/09 00:40:38;;;;;;;2.35;1.95;;;;;;;4.55;100.00;101809.47;5047962;28;20388;-80
2023/02/09 00:43:05;;;;;;;4.20;2.10;;;;;;;4.46;100.00;101804.63;5026229;28;20060;-80
2023/02/09 00:45:31;;;;;;;1.52;1.23;;;;;;;4.33;100.00;101805.19;5024913;28;20029;-80
2023/02/09 00:47:58;;;;;;;2.78;1.55;;;;;;;4.15;100.00;101812.13;5022035;28;20120;-80
2023/02/09 00:50:24;;;;;;;7.00;1.40;;;;;;;4.01;100.00;101811.88;5004574;28;20041;-80
2023/02/09 00:52:50;;;;;;;3.90;1.23;;;;;;;3.94;100.00;101814.78;4996377;28;20049;-81
2023/02/09 00:55:17;;;;;;;2.83;1.45;;;;;;;3.95;100.00;101831.31;5012614;28;20045;-80
2023/02/09 00:57:42;;;;;;;3.70;1.25;;;;;;;3.95;100.00;101826.09;5031390;28;20121;-81
2023/02/09 01:00:10;;;;;;;5.55;1.10;;;;;;;3.96;100.00;101825.16;5016696;28;20107;-80
2023/02/09 01:02:36;;;;;;;4.50;1.23;;;;;;;3.91;100.00;101834.97;5030713;28;20039;-80
2023/02/09 01:05:02;;;;;;;3.45;1.48;;;;;;;3.91;100.00;101837.59;5010851;28;20037;-80
2023/02/09 01:07:29;;;;;;;3.85;1.52;;;;;;;3.92;100.00;101837.53;4993491;28;20095;-80
2023/02/09 01:09:55;;;;;;;3.95;1.35;;;;;;;3.95;100.00;101844.41;5048186;28;20405;-80
2023/02/09 01:12:20;;;;;;;3.78;1.48;;;;;;;3.93;100.00;101846.22;5033239;28;20440;-80
2023/02/09 01:14:46;;;;;;;3.42;1.48;;;;;;;3.92;100.00;101844.50;5011058;28;20041;-80
2023/02/09 01:17:12;;;;;;;3.08;1.30;;;;;;;3.91;100.00;101853.28;5032396;28;20052;-81
2023/02/09 01:19:38;;;;;;;2.80;1.02;;;;;;;3.90;100.00;101859.44;5030442;28;20090;-81
2023/02/09 01:22:04;;;;;;;4.05;1.50;;;;;;;3.89;100.00;101855.09;5011845;28;20084;-80
2023/02/09 01:24:29;;;;;;;2.70;1.48;;;;;;;3.84;100.00;101858.78;4993295;28;20548;-80
2023/02/09 01:26:55;;;;;;;2.25;1.20;;;;;;;3.81;100.00;101853.69;4995267;28;20033;-80
2023/02/09 01:29:22;;;;;;;6.05;1.33;;;;;;;3.77;100.00;101864.34;5024535;28;20030;-80
2023/02/09 01:31:48;;;;;;;9.23;1.80;;;;;;;3.78;100.00;101856.44;4992551;28;20405;-80
2023/02/09 01:34:17;;;;;;;2.78;1.33;;;;;;;3.75;100.00;101855.69;5010864;28;20049;-80
2023/02/09 01:36:43;;;;;;;7.18;1.77;;;;;;;3.70;100.00;101850.66;5022855;28;20029;-80
2023/02/09 01:39:11;;;;;;;3.20;1.35;;;;;;;3.67;100.00;101853.41;4998047;28;20052;-80
2023/02/09 01:41:37;;;;;;;2.08;1.27;;;;;;;3.60;100.00;101865.88;5019382;28;20029;-80
2023/02/09 01:44:25;;;;;;;3.08;1.20;;;;;;;3.54;100.00;101866.13;5022362;28;20032;-80
2023/02/09 01:46:52;;;;;;;3.35;1.70;;;;;;;3.46;100.00;101853.38;5015668;28;20083;-80
2023/02/09 01:49:26;;;;;;;3.55;1.70;;;;;;;3.44;100.00;101856.06;5008397;28;20033;-81
2023/02/09 01:52:03;;;;;;;21.45;2.45;;;;;;;3.35;100.00;101856.44;5022362;28;20037;-80
2023/02/09 01:54:38;;;;;;;8.85;2.22;;;;;;;3.27;100.00;101864.59;5026460;28;20068;-80
2023/02/09 01:57:12;;;;;;;2.75;2.13;;;;;;;3.22;100.00;101867.38;5004539;28;20034;-80
2023/02/09 01:59:41;;;;;;;3.97;2.15;;;;;;;3.18;100.00;101867.56;5040175;28;20030;-80
2023/02/09 02:02:08;;;;;;;2.67;2.05;;;;;;;3.16;100.00;101866.75;5025582;28;20060;-80
2023/02/09 02:04:35;;;;;;;3.30;1.77;;;;;;;3.10;100.00;101866.13;5025885;28;20053;-81
2023/02/09 02:07:11;;;;;;;5.18;2.40;;;;;;;3.13;100.00;101874.72;5024851;28;20033;-80
2023/02/09 02:09:37;;;;;;;3.60;1.60;;;;;;;3.03;100.00;101872.47;5019672;28;20042;-80
2023/02/09 02:12:03;;;;;;;29.20;3.75;;;;;;;3.00;100.00;101872.59;5024487;28;20034;-80
2023/02/09 02:14:31;;;;;;;99.55;3.65;;;;;;;2.97;100.00;101886.63;5005150;28;20045;-80
2023/02/09 02:17:15;;;;;;;11.50;2.53;;;;;;;2.91;100.00;101891.22;5014660;28;20044;-80
2023/02/09 02:20:11;;;;;;;4.38;2.92;;;;;;;2.84;100.00;101899.31;5025851;28;20061;-80
2023/02/09 02:22:49;;;;;;;25.55;2.42;;;;;;;2.88;100.00;101904.41;5026492;28;20026;-80
2023/02/09 02:25:39;;;;;;;24.58;2.97;;;;;;;2.89;100.00;101912.19;5006111;28;20053;-80
2023/02/09 02:28:14;;;;;;;21.65;2.22;;;;;;;2.86;100.00;101912.31;5026908;28;20108;-80
2023/02/09 02:31:01;;;;;;;92.80;3.97;;;;;;;2.87;100.00;101900.09;5028638;28;20124;-80
2023/02/09 02:33:45;;;;;;;59.40;2.75;;;;;;;2.80;100.00;101894.25;5001865;28;20045;-80
2023/02/09 02:36:52;;;;;;;92.30;2.83;;;;;;;2.75;100.00;101890.94;4999919;28;20033;-80
2023/02/09 02:40:06;;;;;;;70.43;2.13;;;;;;;2.66;100.00;101889.56;5010631;28;20507;-80
2023/02/09 02:42:54;;;;;;;33.30;1.77;;;;;;;2.65;100.00;101896.53;5019825;28;20037;-80
2023/02/09 02:45:54;;;;;;;41.50;1.88;;;;;;;2.65;100.00;101899.13;5025243;28;20405;-80
2023/02/09 02:48:45;;;;;;;13.43;1.55;;;;;;;2.67;100.00;101893.84;5038704;28;20046;-80
2023/02/09 02:51:25;;;;;;;39.85;1.55;;;;;;;2.65;100.00;101890.44;5026819;28;20029;-80
2023/02/09 02:53:55;;;;;;;16.63;1.15;;;;;;;2.63;100.00;101900.94;5023882;28;20551;-80
2023/02/09 02:56:30;;;;;;;23.45;1.10;;;;;;;2.60;100.00;101904.53;5005201;28;20378;-80
2023/02/09 02:59:00;;;;;;;7.47;1.80;;;;;;;2.54;100.00;101909.97;5005786;28;20393;-80
2023/02/09 03:01:32;;;;;;;3.17;0.82;;;;;;;2.53;100.00;101923.06;5030186;28;20043;-80
2023/02/09 03:04:01;;;;;;;16.63;0.95;;;;;;;2.44;100.00;101916.41;5031061;28;20046;-80
2023/02/09 03:06:31;;;;;;;5.03;0.88;;;;;;;2.37;100.00;101921.00;5049984;28;20025;-80
2023/02/09 03:08:57;;;;;;;0.73;0.57;;;;;;;2.31;100.00;101922.06;5045995;28;20127;-81
2023/02/09 03:11:29;;;;;;;11.55;0.90;;;;;;;2.24;100.00;101923.19;5019896;28;20104;-80
2023/02/09 03:14:07;;;;;;;11.40;1.10;;;;;;;2.18;100.00;101924.25;5030494;28;20064;-80
2023/02/09 03:16:43;;;;;;;11.63;1.15;;;;;;;2.07;100.00;101924.59;5031658;28;20120;-80
2023/02/09 03:19:52;;;;;;;19.40;1.95;;;;;;;2.03;100.00;101929.97;5030233;28;20501;-80
2023/02/09 03:22:41;;;;;;;18.42;2.28;;;;;;;2.01;100.00;101929.19;4996928;28;20042;-80
2023/02/09 03:25:36;;;;;;;5.53;1.88;;;;;;;1.95;100.00;101928.50;5016634;28;20064;-80
2023/02/09 03:28:21;;;;;;;5.93;1.80;;;;;;;1.96;100.00;101921.50;4998249;28;21456;-80
2023/02/09 03:30:49;;;;;;;2.53;2.03;;;;;;;1.91;100.00;101919.06;5021917;28;20098;-80
2023/02/09 03:33:27;;;;;;;2.25;1.50;;;;;;;1.92;100.00;101912.09;5003090;28;20498;-80
2023/02/09 03:35:55;;;;;;;4.53;1.40;;;;;;;1.89;100.00;101913.06;5011540;28;20418;-80
2023/02/09 03:38:22;;;;;;;4.55;1.50;;;;;;;1.88;100.00;101911.34;4989409;28;20113;-80
2023/02/09 03:40:48;;;;;;;4.75;1.90;;;;;;;1.87;100.00;101912.25;4993260;28;20379;-81
2023/02/09 03:43:14;;;;;;;6.65;2.00;;;;;;;1.85;100.00;101911.44;5008621;28;20092;-80
2023/02/09 03:45:40;;;;;;;16.17;2.35;;;;;;;1.82;100.00;101915.00;5000878;28;20045;-80
2023/02/09 03:48:06;;;;;;;3.28;2.17;;;;;;;1.83;100.00;101921.09;4975360;28;20513;-81
2023/02/09 03:50:34;;;;;;;7.03;2.08;;;;;;;1.83;100.00;101913.25;5009150;28;20030;-80
2023/02/09 03:53:01;;;;;;;9.15;1.70;;;;;;;1.81;100.00;101918.53;4992360;28;20034;-81
2023/02/09 03:55:28;;;;;;;28.73;2.45;;;;;;;1.80;100.00;101915.97;5010355;28;20123;-80
2023/02/09 03:57:54;;;;;;;18.98;1.98;;;;;;;1.78;100.00;101917.78;5005424;28;20046;-81
2023/02/09 04:00:20;;;;;;;18.70;2.10;;;;;;;1.69;100.00;101929.34;5009751;28;20084;-81
2023/02/09 04:02:46;;;;;;;18.98;3.10;;;;;;;1.57;100.00;101948.84;5021949;28;21719;-81
2023/02/09 04:05:12;;;;;;;21.52;2.58;;;;;;;1.54;100.00;101941.13;4991858;28;20034;-81
2023/02/09 04:07:38;;;;;;;4.82;2.50;;;;;;;1.52;100.00;101942.91;5006176;28;20487;-81
2023/02/09 04:10:04;;;;;;;4.63;1.75;;;;;;;1.54;100.00;101935.91;5002620;28;20042;-81
2023/02/09 04:12:30;;;;;;;3.50;1.50;;;;;;;1.57;100.00;101941.00;5005955;28;20039;-81
2023/02/09 04:14:56;;;;;;;5.13;1.05;;;;;;;1.61;100.00;101947.81;5009632;28;20040;-81
2023/02/09 04:17:22;;;;;;;2.78;1.45;;;;;;;1.62;100.00;101941.72;4994004;28;20077;-81
2023/02/09 04:19:47;;;;;;;2.47;1.42;;;;;;;1.63;100.00;101951.25;5005692;28;20405;-81
2023/02/09 04:22:13;;;;;;;2.42;1.48;;;;;;;1.63;100.00;101953.84;5008621;28;20123;-81
2023/02/09 04:24:43;;;;;;;2.83;1.33;;;;;;;1.63;100.00;101966.03;5023457;28;20034;-81
2023/02/09 04:27:09;;;;;;;3.20;1.23;;;;;;;1.64;100.00;101970.34;5029936;28;20040;-81
2023/02/09 04:29:34;;;;;;;2.38;1.38;;;;;;;1.66;100.00;101978.97;5026563;28;20033;-81
2023/02/09 04:32:00;;;;;;;3.13;1.20;;;;;;;1.69;100.00;101978.88;5026668;28;20041;-81
2023/02/09 04:34:26;;;;;;;2.03;1.13;;;;;;;1.72;100.00;101978.78;4986840;28;20037;-81
2023/02/09 04:36:52;;;;;;;2.20;0.88;;;;;;;1.76;100.00;101966.50;5008815;28;20379;-81
2023/02/09 04:39:18;;;;;;;1.25;0.60;;;;;;;1.78;100.00;101968.16;5003958;28;20036;-81
2023/02/09 04:41:43;;;;;;;4.50;1.33;;;;;;;1.80;100.00;101976.78;5010813;28;20099;-81
2023/02/09 04:44:09;;;;;;;3.92;0.88;;;;;;;1.84;100.00;101980.13;5044728;28;20040;-80
2023/02/09 04:46:35;;;;;;;2.17;0.85;;;;;;;1.88;100.00;101980.91;5029512;28;20045;-80
2023/02/09 04:49:01;;;;;;;1.63;0.95;;;;;;;1.89;100.00;101983.47;5023043;28;20042;-81
2023/02/09 04:51:27;;;;;;;6.03;0.90;;;;;;;1.88;100.00;101984.34;4985196;28;20479;-81
2023/02/09 04:53:53;;;;;;;4.85;0.85;;;;;;;1.91;100.00;101986.03;5024313;28;20104;-81
2023/02/09 04:56:18;;;;;;;2.85;0.98;;;;;;;1.93;100.00;101986.81;5019447;28;20068;-81
2023/02/09 05:01:29;;;;;;;3.30;0.90;;;;;;;1.63;100.00;101982.53;5009781;28;20122;-80
2023/02/09 05:03:55;;;;;;;3.08;1.23;;;;;;;1.54;100.00;101993.22;4955991;28;20481;-81
2023/02/09 05:06:21;;;;;;;2.25;0.93;;;;;;;1.44;100.00;101990.03;5027393;28;20033;-80
2023/02/09 05:08:47;;;;;;;1.50;1.20;;;;;;;1.36;100.00;101990.28;5023065;28;20542;-81
2023/02/09 05:11:14;;;;;;;3.22;0.95;;;;;;;1.35;100.00;101999.84;5028989;28;20094;-81
2023/02/09 05:13:40;;;;;;;3.15;0.95;;;;;;;1.34;100.00;101992.94;5037504;28;20045;-80
2023/02/09 05:16:08;;;;;;;2.55;1.20;;;;;;;1.39;100.00;102003.22;5019918;28;20401;-80
2023/02/09 05:18:34;;;;;;;2.08;1.10;;;;;;;1.40;100.00;101997.09;5027348;28;20498;-81
2023/02/09 05:21:01;;;;;;;2.10;1.40;;;;;;;1.41;100.00;101995.34;5013017;28;20042;-81
2023/02/09 05:23:27;;;;;;;2.75;1.20;;;;;;;1.40;100.00;102004.06;5024830;28;20034;-81
2023/02/09 05:25:54;;;;;;;5.30;1.50;;;;;;;1.36;100.00;102004.16;5028046;28;20042;-80
2023/02/09 05:28:21;;;;;;;5.00;1.20;;;;;;;1.34;100.00;102012.91;5022417;28;20032;-81
2023/02/09 05:30:52;;;;;;;8.32;1.60;;;;;;;1.29;100.00;102012.22;5024324;28;20033;-80
2023/02/09 05:33:22;;;;;;;19.92;2.08;;;;;;;1.26;100.00;102007.94;5006361;28;20136;-81
2023/02/09 05:35:50;;;;;;;2.90;1.20;;;;;;;1.14;100.00;102003.06;5016692;28;20458;-81
2023/02/09 05:38:16;;;;;;;2.00;1.40;;;;;;;1.11;100.00;102017.06;5026891;28;20037;-80
2023/02/09 05:40:42;;;;;;;1.50;1.27;;;;;;;0.91;100.00;102002.00;5022018;28;20029;-80
2023/02/09 05:43:08;;;;;;;1.70;1.25;;;;;;;0.80;100.00;102004.88;5033107;28;20057;-80
2023/02/09 05:45:33;;;;;;;1.50;1.38;;;;;;;0.77;100.00;102011.03;5019957;28;20042;-81
2023/02/09 05:48:00;;;;;;;2.08;1.88;;;;;;;0.79;100.00;102008.38;5033063;28;20042;-80
2023/02/09 05:50:27;;;;;;;1.80;1.70;;;;;;;0.82;100.00;102011.75;5024180;28;20030;-80
2023/02/09 05:52:58;;;;;;;2.00;1.58;;;;;;;0.88;100.00;102015.09;5027592;28;20056;-80
2023/02/09 05:55:24;;;;;;;2.92;1.15;;;;;;;0.86;100.00;102010.75;5025250;28;20583;-80
2023/02/09 05:57:50;;;;;;;1.77;1.42;;;;;;;0.89;100.00;102011.59;5027560;28;20025;-80
2023/02/09 06:00:16;;;;;;;2.47;1.73;;;;;;;0.90;100.00;102019.34;5038311;28;20037;-80
2023/02/09 06:02:42;;;;;;;2.20;1.50;;;;;;;0.93;100.00;102032.28;5027696;28;20029;-80
2023/02/09 06:05:07;;;;;;;2.42;1.10;;;;;;;0.94;100.00;102022.75;5013002;28;20033;-80
2023/02/09 06:07:34;;;;;;;1.35;1.00;;;;;;;0.95;100.00;102035.72;5025238;28;20490;-80
2023/02/09 06:09:59;;;;;;;1.45;0.85;;;;;;;0.95;100.00;102035.72;5026335;28;20030;-80
2023/02/09 06:12:25;;;;;;;0.98;0.70;;;;;;;0.99;100.00;102029.50;5009919;28;20033;-80
2023/02/09 06:14:51;;;;;;;0.88;0.88;;;;;;;1.05;100.00;102031.06;5026656;28;20045;-80
2023/02/09 06:17:16;;;;;;;2.00;1.38;;;;;;;1.07;100.00;102031.03;5019102;28;20037;-80
2023/02/09 06:19:42;;;;;;;1.88;0.90;;;;;;;1.07;100.00;102041.44;5024159;28;20037;-80
2023/02/09 06:22:08;;;;;;;1.38;1.08;;;;;;;0.99;100.00;102036.47;5008811;28;20501;-79
2023/02/09 06:24:34;;;;;;;2.70;1.10;;;;;;;0.94;100.00;102046.16;5008148;28;20490;-79
2023/02/09 06:26:59;;;;;;;1.85;1.08;;;;;;;0.92;100.00;102043.59;5006211;28;20144;-79
2023/02/09 06:29:26;;;;;;;3.67;1.08;;;;;;;0.93;100.00;102042.69;4975404;28;20046;-80
2023/02/09 06:31:52;;;;;;;6.22;1.17;;;;;;;0.91;100.00;102041.88;5004901;28;20041;-80
2023/02/09 06:34:17;;;;;;;3.30;1.48;;;;;;;0.86;100.00;102049.81;5004694;28;20492;-80
2023/02/09 06:36:43;;;;;;;4.60;1.30;;;;;;;0.80;100.00;102044.78;5008992;28;20034;-80
2023/02/09 06:39:09;;;;;;;4.30;1.52;;;;;;;0.75;100.00;102057.06;5023666;28;20034;-80
2023/02/09 06:41:35;;;;;;;5.43;1.38;;;;;;;0.70;100.00;102048.53;5000449;28;20467;-80
2023/02/09 06:44:01;;;;;;;6.63;1.55;;;;;;;0.64;100.00;102048.69;5001448;28;20075;-80
2023/02/09 06:46:27;;;;;;;6.63;1.83;;;;;;;0.59;100.00;102051.41;4999794;28;20037;-80
2023/02/09 06:48:53;;;;;;;6.93;1.67;;;;;;;0.55;100.00;102050.63;5007150;28;20092;-80
2023/02/09 06:51:19;;;;;;;7.78;1.90;;;;;;;0.57;100.00;102048.84;5003616;28;20042;-80
2023/02/09 06:53:45;;;;;;;6.22;1.77;;;;;;;0.60;100.00;102053.97;5002164;28;20097;-80
2023/02/09 06:56:12;;;;;;;7.13;1.60;;;;;;;0.60;100.00;102051.38;5007390;28;20037;-80
2023/02/09 06:58:39;;;;;;;5.55;1.55;;;;;;;0.61;100.00;102054.81;5000958;28;20080;-80
2023/02/09 07:01:10;;;;;;;13.02;1.38;;;;;;;0.59;100.00;102067.03;5002063;28;20037;-80
2023/02/09 07:03:36;;;;;;;7.70;1.35;;;;;;;0.55;100.00;102070.56;5006240;28;20045;-80
2023/02/09 07:06:08;;;;;;;9.00;1.55;;;;;;;0.55;100.00;102081.84;5021347;28;20033;-80
2023/02/09 07:08:35;;;;;;;9.38;1.80;;;;;;;0.49;100.00;102092.41;5000261;28;20041;-80
2023/02/09 07:11:07;;;;;;;6.07;1.70;;;;;;;0.45;100.00;102088.16;5003470;28;20050;-80
2023/02/09 07:13:33;;;;;;;7.50;1.75;;;;;;;0.37;100.00;102096.16;4986127;28;20402;-81
2023/02/09 07:16:01;;;;;;;11.73;1.85;;;;;;;0.33;100.00;102097.13;5005609;28;20049;-80
2023/02/09 07:18:28;;;;;;;11.73;2.42;;;;;;;0.26;100.00;102096.41;5009056;28;20394;-80
2023/02/09 07:20:55;;;;;;;8.10;1.38;;;;;;;0.26;100.00;102099.00;5004306;28;20046;-80
2023/02/09 07:23:22;;;;;;;8.18;1.38;;;;;;;0.24;100.00;102112.06;5013205;28;20057;-81
2023/02/09 07:25:48;;;;;;;9.20;1.85;;;;;;;0.14;100.00;102114.91;5006013;28;20139;-80
2023/02/09 07:28:14;;;;;;;14.50;2.25;;;;;;;0.17;100.00;102112.22;4986520;28;20479;-80
2023/02/09 07:30:40;;;;;;;7.15;1.42;;;;;;;0.17;100.00;102109.63;5006318;28;20030;-80
2023/02/09 07:33:07;;;;;;;6.43;1.70;;;;;;;0.16;100.00;102118.34;4998998;28;20034;-80
2023/02/09 07:35:33;;;;;;;5.43;1.25;;;;;;;0.17;100.00;102128.69;5005448;28;20037;-80
2023/02/09 07:37:59;;;;;;;1.98;1.15;;;;;;;0.13;100.00;102127.03;5006935;28;20121;-80
2023/02/09 07:40:24;;;;;;;4.47;1.40;;;;;;;0.11;100.00;102134.88;5000627;28;20125;-80
2023/02/09 07:42:51;;;;;;;5.68;1.35;;;;;;;0.07;100.00;102134.97;4996915;28;20038;-80
2023/02/09 07:45:17;;;;;;;6.75;1.27;;;;;;;0.09;100.00;102135.81;4973387;28;20065;-80
2023/02/09 07:47:42;;;;;;;4.38;2.20;;;;;;;0.04;100.00;102128.13;4986409;28;20062;-79
2023/02/09 07:50:09;;;;;;;7.25;1.75;;;;;;;0.03;100.00;102134.22;5007263;28;20029;-80
2023/02/09 07:52:34;;;;;;;8.25;1.63;;;;;;;0.04;100.00;102138.50;4953615;28;20642;-80
2023/02/09 07:55:01;;;;;;;6.85;1.38;;;;;;;0.06;100.00;102138.47;5005815;28;20046;-80
2023/02/09 07:57:26;;;;;;;7.05;2.75;;;;;;;0.06;100.00;102138.47;5009184;28;20482;-80
2023/02/09 07:59:52;;;;;;;20.10;8.32;;;;;;;0.06;100.00;102141.94;4983398;28;20042;-80
2023/02/09 08:02:28;;;;;;;36.50;15.40;;;;;;;0.10;100.00;102143.56;5003581;28;20018;-80
2023/02/09 08:04:57;;;;;;;46.60;24.55;;;;;;;0.12;100.00;102148.75;5008854;28;20519;-80
2023/02/09 08:07:24;;;;;;;7.10;3.00;;;;;;;0.10;100.00;102146.19;5008143;28;20038;-80
2023/02/09 08:09:50;;;;;;;8.50;1.15;;;;;;;0.09;100.00;102157.47;5007286;28;20394;-80
2023/02/09 08:12:16;;;;;;;12.10;4.75;;;;;;;0.11;100.00;102150.47;4988705;28;20048;-80
2023/02/09 08:14:47;;;;;;;4.78;1.83;;;;;;;0.16;100.00;102160.78;5008752;28;20045;-80
2023/02/09 08:17:19;;;;;;;51.42;26.67;;;;;;;0.20;100.00;102159.84;5004117;28;20037;-80
2023/02/09 08:20:15;;;;;;;57.80;29.05;;;;;;;0.20;100.00;102171.97;5009502;28;20355;-80
2023/02/09 08:22:46;;;;;;;46.40;21.65;;;;;;;0.16;100.00;102170.34;5032905;28;20057;-79
2023/02/09 08:25:15;;;;;;;27.77;14.98;;;;;;;0.11;100.00;102179.06;5025656;28;20040;-79
2023/02/09 08:27:43;;;;;;;16.75;5.97;;;;;;;0.16;100.00;102173.78;5039567;28;20036;-79
2023/02/09 08:30:10;;;;;;;7.68;1.50;;;;;;;0.18;100.00;102186.75;5028882;28;20144;-81
2023/02/09 08:32:36;;;;;;;5.63;1.30;;;;;;;0.17;100.00;102185.03;5038322;28;20029;-80
2023/02/09 08:35:02;;;;;;;11.60;3.05;;;;;;;0.15;100.00;102187.69;5030297;28;20041;-80
2023/02/09 08:37:28;;;;;;;22.55;5.03;;;;;;;0.18;100.00;102195.41;4997241;28;20037;-80
2023/02/09 08:39:54;;;;;;;9.82;3.60;;;;;;;0.26;100.00;102202.19;5048756;28;20051;-80
2023/02/09 08:42:20;;;;;;;12.48;3.90;;;;;;;0.39;100.00;102203.63;5028976;28;20123;-80
2023/02/09 08:44:45;;;;;;;13.80;6.68;;;;;;;0.47;100.00;102206.06;5047919;28;20445;-80
2023/02/09 08:47:11;;;;;;;7.80;2.20;;;;;;;0.57;100.00;102209.31;5028081;28;20048;-80
2023/02/09 08:49:37;;;;;;;14.07;2.97;;;;;;;0.65;100.00;102215.22;5033735;28;20040;-80
2023/02/09 08:52:03;;;;;;;8.65;1.38;;;;;;;0.72;100.00;102214.16;5008966;28;20041;-80
2023/02/09 08:54:28;;;;;;;9.93;2.10;;;;;;;0.73;100.00;102208.06;5031577;28;20036;-80
2023/02/09 08:56:55;;;;;;;13.05;1.75;;;;;;;0.67;100.00;102216.00;5047545;28;20215;-80
2023/02/09 08:59:22;;;;;;;12.18;1.90;;;;;;;0.57;100.00;102217.13;5030303;28;20033;-79
2023/02/09 09:01:47;;;;;;;6.28;1.50;;;;;;;0.67;100.00;102226.41;5033370;28;20033;-80
2023/02/09 09:04:13;;;;;;;6.93;1.02;;;;;;;0.81;100.00;102214.84;5029454;28;20406;-80
2023/02/09 09:06:39;;;;;;;6.75;1.67;;;;;;;0.97;100.00;102217.94;5030527;28;20044;-80
2023/02/09 09:09:05;;;;;;;11.75;1.52;;;;;;;1.06;100.00;102215.09;5013604;28;20036;-80
2023/02/09 09:11:30;;;;;;;6.30;1.52;;;;;;;1.14;100.00;102214.91;5027464;28;20037;-80
2023/02/09 09:13:57;;;;;;;15.18;1.65;;;;;;;1.08;100.00;102218.50;5030238;28;20044;-80
2023/02/09 09:16:23;;;;;;;16.98;2.78;;;;;;;1.05;100.00;102229.00;5033227;28;20040;-80
2023/02/09 09:18:49;;;;;;;12.00;3.22;;;;;;;1.10;100.00;102234.09;5029599;28;20512;-80
2023/02/09 09:21:17;;;;;;;4.15;1.27;;;;;;;0.94;100.00;102246.66;5045282;28;20045;-80
2023/02/09 09:23:44;;;;;;;8.52;2.03;;;;;;;0.79;100.00;102240.06;5026085;28;20049;-80
2023/02/09 09:26:10;;;;;;;5.55;1.75;;;;;;;0.73;100.00;102241.91;5049832;28;20028;-80
2023/02/09 09:28:37;;;;;;;7.35;2.10;;;;;;;0.77;100.00;102241.81;5028317;28;20028;-80
2023/02/09 09:31:08;;;;;;;10.25;1.88;;;;;;;0.86;100.00;102241.63;5033922;28;20072;-80
2023/02/09 09:33:34;;;;;;;9.07;1.88;;;;;;;0.85;100.00;102239.91;5021759;28;20068;-80
2023/02/09 09:36:01;;;;;;;10.98;1.90;;;;;;;0.83;100.00;102239.94;5021199;28;20481;-80
2023/02/09 09:38:26;;;;;;;7.85;1.67;;;;;;;0.82;100.00;102245.19;5033142;28;20037;-80
2023/02/09 09:40:52;;;;;;;4.68;1.63;;;;;;;0.72;100.00;102245.41;5012106;28;20033;-81
2023/02/09 09:43:31;;;;;;;6.72;2.25;;;;;;;0.75;100.00;102254.88;5016390;28;20842;-80
2023/02/09 09:45:58;;;;;;;11.20;2.30;;;;;;;0.83;100.00;102252.97;5041863;28;20509;-80
2023/02/09 09:48:30;;;;;;;6.60;2.20;;;;;;;0.97;100.00;102257.84;5013545;28;20033;-80
2023/02/09 09:51:03;;;;;;;8.20;2.10;;;;;;;1.10;100.00;102260.13;4986135;28;20091;-80
2023/02/09 09:53:32;;;;;;;9.95;2.05;;;;;;;1.26;100.00;102250.19;4987504;28;20040;-80
2023/02/09 09:56:02;;;;;;;9.68;1.60;;;;;;;1.35;100.00;102252.56;5026781;28;20408;-80
2023/02/09 09:58:29;;;;;;;11.40;2.58;;;;;;;1.54;100.00;102257.34;5029080;28;20796;-80
2023/02/09 10:00:55;;;;;;;14.57;2.40;;;;;;;1.67;100.00;102246.56;4994946;28;20049;-80
2023/02/09 10:03:22;;;;;;;9.68;2.83;;;;;;;1.80;100.00;102245.31;5025953;28;20033;-80
2023/02/09 10:06:11;;;;;;;10.82;2.15;;;;;;;1.92;100.00;102251.97;5010147;28;20080;-81
2023/02/09 10:08:52;;;;;;;5.38;2.20;;;;;;;2.06;100.00;102262.00;5006399;28;20045;-81
2023/02/09 10:11:26;;;;;;;14.30;3.50;;;;;;;2.15;100.00;102260.88;5024003;28;20033;-80
2023/02/09 10:13:54;;;;;;;9.70;2.45;;;;;;;2.29;100.00;102259.63;5037072;28;20037;-80
2023/02/09 10:16:24;;;;;;;8.95;1.70;;;;;;;2.40;100.00;102264.53;5022136;28;20112;-80
2023/02/09 10:18:52;;;;;;;7.93;2.25;;;;;;;2.54;100.00;102261.50;5024967;28;20037;-80
2023/02/09 10:21:18;;;;;;;9.18;2.03;;;;;;;2.60;100.00;102264.78;5029571;28;20050;-80
2023/02/09 10:23:50;;;;;;;10.23;2.22;;;;;;;2.70;100.00;102280.19;5004703;28;20060;-80
2023/02/09 10:26:24;;;;;;;18.67;3.25;;;;;;;2.81;100.00;102272.00;5000836;28;20092;-80
2023/02/09 10:29:05;;;;;;;11.93;1.73;;;;;;;2.92;100.00;102274.28;5004277;28;20026;-80
2023/02/09 10:31:36;;;;;;;6.10;1.85;;;;;;;2.96;100.00;102279.34;5020074;28;20088;-80
2023/02/09 10:34:11;;;;;;;14.50;2.03;;;;;;;3.02;100.00;102280.94;4999822;28;20141;-79
2023/02/09 10:36:53;;;;;;;7.28;1.85;;;;;;;3.15;100.00;102276.16;5002536;28;20053;-79
2023/02/09 10:39:21;;;;;;;14.00;2.22;;;;;;;3.22;100.00;102280.28;4998596;28;20034;-79
2023/02/09 10:41:52;;;;;;;14.38;3.55;;;;;;;3.39;100.00;102288.47;4994392;28;20038;-79
2023/02/09 10:44:33;;;;;;;12.60;2.72;;;;;;;3.52;100.00;102291.53;4984542;28;20125;-79
2023/02/09 10:47:22;;;;;;;24.63;9.38;;;;;;;3.68;100.00;102289.25;5019518;28;20037;-79
2023/02/09 10:50:10;;;;;;;22.40;7.32;;;;;;;3.80;100.00;102288.81;5000276;28;20046;-80
2023/02/09 10:52:53;;;;;;;9.77;1.90;;;;;;;3.87;100.00;102285.97;4999550;28;20120;-80
2023/02/09 10:55:27;;;;;;;27.02;7.10;;;;;;;3.98;100.00;102291.69;4987600;28;20056;-79
2023/02/09 10:58:10;;;;;;;34.95;13.85;;;;;;;4.04;100.00;102293.22;5000078;28;20058;-79
2023/02/09 11:00:51;;;;;;;22.98;7.97;;;;;;;4.12;100.00;102293.78;4994250;28;20037;-79
2023/02/09 11:03:21;;;;;;;7.55;2.38;;;;;;;4.22;100.00;102302.16;4986284;28;20046;-79
2023/02/09 11:06:01;;;;;;;15.13;5.03;;;;;;;4.35;100.00;102297.31;4980986;28;20030;-79
2023/02/09 11:08:42;;;;;;;15.63;3.13;;;;;;;4.49;100.00;102294.16;4997261;28;20402;-79
2023/02/09 11:11:22;;;;;;;8.45;2.47;;;;;;;4.61;100.00;102297.22;5003355;28;20034;-79
2023/02/09 11:13:48;;;;;;;10.10;3.28;;;;;;;4.67;100.00;102294.38;4980625;28;20071;-78
2023/02/09 11:16:19;;;;;;;25.00;13.10;;;;;;;4.77;100.00;102298.34;5004084;28;20127;-79
2023/02/09 11:18:55;;;;;;;12.10;4.15;;;;;;;4.88;100.00;102300.53;4997043;28;20042;-79
2023/02/09 11:21:35;;;;;;;10.80;4.40;;;;;;;4.90;100.00;102298.72;4994755;28;20042;-79
2023/02/09 11:24:11;;;;;;;12.77;1.85;;;;;;;4.96;100.00;102297.63;5025168;28;20477;-79
2023/02/09 11:27:18;;;;;;;14.80;2.47;;;;;;;5.08;100.00;102286.63;5026014;28;20054;-80
2023/02/09 11:29:50;;;;;;;10.73;2.40;;;;;;;5.17;100.00;102289.81;5000184;28;20076;-79
2023/02/09 11:32:18;;;;;;;11.25;3.08;;;;;;;5.25;100.00;102292.97;5043626;28;20099;-79
2023/02/09 11:35:07;;;;;;;12.63;5.70;;;;;;;5.41;100.00;102300.19;5004123;28;20047;-79
2023/02/09 11:38:10;;;;;;;14.40;4.80;;;;;;;5.52;100.00;102304.97;5050886;28;20112;-79